createdAt,value
2017-11-26T00:00:46.308Z,17.93
2017-11-26T00:03:17.858Z,16.70
2017-11-26T00:05:47.057Z,18.73
2017-11-26T00:08:16.153Z,18.30
2017-11-26T00:10:45.152Z,20.80
2017-11-26T00:13:16.102Z,15.30
2017-11-26T00:15:45.853Z,15.40
2017-11-26T00:18:16.097Z,15.03
2017-11-26T00:20:47.991Z,23.70
2017-11-26T00:23:24.209Z,22.60
2017-11-26T00:25:55.089Z,15.40
2017-11-26T00:28:26.691Z,23.93
2017-11-26T00:30:57.803Z,16.83
2017-11-26T00:33:26.894Z,14.20
2017-11-26T00:36:01.604Z,15.30
2017-11-26T00:38:31.875Z,17.00
2017-11-26T00:41:00.925Z,11.63
2017-11-26T00:43:31.963Z,15.23
2017-11-26T00:46:01.984Z,19.70
2017-11-26T00:48:32.609Z,17.67
2017-11-26T00:51:02.530Z,13.80
2017-11-26T00:53:31.456Z,14.37
2017-11-26T00:56:01.578Z,19.70
2017-11-26T00:58:30.701Z,14.67
2017-11-26T01:01:00.554Z,17.10
2017-11-26T01:03:30.293Z,18.43
2017-11-26T01:06:00.284Z,16.70
2017-11-26T01:08:31.117Z,15.87
2017-11-26T01:11:05.406Z,16.73
2017-11-26T01:13:35.259Z,26.67
2017-11-26T01:16:05.311Z,19.90
2017-11-26T01:21:09.009Z,14.00
2017-11-26T01:23:42.162Z,17.07
2017-11-26T01:26:11.440Z,19.20
2017-11-26T01:28:41.711Z,23.60
2017-11-26T01:31:11.727Z,17.63
2017-11-26T01:33:42.845Z,24.43
2017-11-26T01:36:11.961Z,16.07
2017-11-26T01:38:40.956Z,23.13
2017-11-26T01:41:11.798Z,23.30
2017-11-26T01:43:40.928Z,18.53
2017-11-26T01:46:11.514Z,16.83
2017-11-26T01:51:18.005Z,19.50
2017-11-26T01:53:47.921Z,20.87
2017-11-26T01:58:55.963Z,20.83
2017-11-26T02:01:25.034Z,23.63
2017-11-26T02:04:01.979Z,17.50
2017-11-26T02:06:31.118Z,20.23
2017-11-26T02:09:00.173Z,23.03
2017-11-26T02:11:31.048Z,21.70
2017-11-26T02:14:01.316Z,22.97
2017-11-26T02:16:32.513Z,22.80
2017-11-26T02:19:02.573Z,26.50
2017-11-26T02:21:32.616Z,22.63
2017-11-26T02:24:01.821Z,21.73
2017-11-26T02:26:30.735Z,19.63
2017-11-26T02:28:59.691Z,22.27
2017-11-26T02:34:26.898Z,43.07
2017-11-26T02:36:56.917Z,34.03
2017-11-26T02:39:26.735Z,29.30
2017-11-26T02:44:30.635Z,37.13
2017-11-26T02:46:59.608Z,40.30
2017-11-26T02:49:30.460Z,29.33
2017-11-26T02:51:59.687Z,35.93
2017-11-26T02:54:28.585Z,35.57
2017-11-26T02:56:57.589Z,32.00
2017-11-26T02:59:28.286Z,30.83
2017-11-26T03:01:57.197Z,32.03
2017-11-26T03:04:26.142Z,30.03
2017-11-26T03:06:55.080Z,30.67
2017-11-26T03:09:24.025Z,24.87
2017-11-26T03:11:52.942Z,32.10
2017-11-26T03:14:21.922Z,22.87
2017-11-26T03:16:50.867Z,30.63
2017-11-26T03:19:19.730Z,33.17
2017-11-26T03:21:48.630Z,32.87
2017-11-26T03:24:18.405Z,27.50
2017-11-26T03:26:47.309Z,36.63
2017-11-26T03:29:17.269Z,32.93
2017-11-26T03:31:46.139Z,35.23
2017-11-26T03:34:15.019Z,28.17
2017-11-26T03:39:19.442Z,33.97
2017-11-26T03:41:49.719Z,47.33
2017-11-26T03:44:18.997Z,34.17
2017-11-26T03:49:26.492Z,29.87
2017-11-26T03:51:55.503Z,28.63
2017-11-26T03:54:25.622Z,32.77
2017-11-26T03:56:56.247Z,36.03
2017-11-26T03:59:25.433Z,29.40
2017-11-26T04:01:54.446Z,31.63
2017-11-26T04:04:25.178Z,29.03
2017-11-26T04:06:54.158Z,31.93
2017-11-26T04:09:24.146Z,28.43
2017-11-26T04:11:54.951Z,26.10
2017-11-26T04:14:26.863Z,29.57
2017-11-26T04:16:55.839Z,33.70
2017-11-26T04:19:24.741Z,31.63
2017-11-26T04:21:54.585Z,28.97
2017-11-26T04:24:24.790Z,28.17
2017-11-26T04:26:54.350Z,34.00
2017-11-26T04:29:23.409Z,39.10
2017-11-26T04:31:52.453Z,29.07
2017-11-26T04:34:26.864Z,37.43
2017-11-26T04:36:56.070Z,39.00
2017-11-26T04:39:25.159Z,41.80
2017-11-26T04:41:54.357Z,36.97
2017-11-26T04:44:27.099Z,37.60
2017-11-26T04:46:56.909Z,38.80
2017-11-26T04:49:26.041Z,30.30
2017-11-26T04:51:56.029Z,41.37
2017-11-26T04:54:25.529Z,35.20
2017-11-26T04:56:55.384Z,33.57
2017-11-26T04:59:25.201Z,42.73
2017-11-26T05:01:54.294Z,34.97
2017-11-26T05:04:26.580Z,40.10
2017-11-26T05:06:56.435Z,40.10
2017-11-26T05:09:25.475Z,46.03
2017-11-26T05:11:54.576Z,34.90
2017-11-26T05:14:24.653Z,33.50
2017-11-26T05:16:54.515Z,40.23
2017-11-26T05:19:25.368Z,43.20
2017-11-26T05:21:56.548Z,34.97
2017-11-26T05:24:25.739Z,35.43
2017-11-26T05:26:55.967Z,33.97
2017-11-26T05:29:25.210Z,29.27
2017-11-26T05:31:56.200Z,29.20
2017-11-26T05:34:28.204Z,32.60
2017-11-26T05:36:57.161Z,35.93
2017-11-26T05:39:27.283Z,25.20
2017-11-26T05:42:06.513Z,33.90
2017-11-26T05:44:36.426Z,38.10
2017-11-26T05:47:10.745Z,49.00
2017-11-26T05:49:39.838Z,69.30
2017-11-26T05:52:08.835Z,45.00
2017-11-26T05:54:39.567Z,50.00
2017-11-26T05:57:09.587Z,44.23
2017-11-26T05:59:38.682Z,37.50
2017-11-26T06:02:07.779Z,41.97
2017-11-26T06:04:37.839Z,45.93
2017-11-26T06:07:07.690Z,40.47
2017-11-26T06:09:37.741Z,26.73
2017-11-26T06:12:08.228Z,30.40
2017-11-26T06:14:37.461Z,31.10
2017-11-26T06:17:06.663Z,26.37
2017-11-26T06:19:35.880Z,30.77
2017-11-26T06:22:06.039Z,28.43
2017-11-26T06:24:39.227Z,33.63
2017-11-26T06:27:08.268Z,30.23
2017-11-26T06:29:39.025Z,26.17
2017-11-26T06:32:13.703Z,32.40
2017-11-26T06:34:43.307Z,31.53
2017-11-26T06:37:16.297Z,29.90
2017-11-26T06:39:46.707Z,25.60
2017-11-26T06:42:15.806Z,29.23
2017-11-26T06:44:46.895Z,31.40
2017-11-26T06:47:16.044Z,29.40
2017-11-26T06:49:45.141Z,32.70
2017-11-26T06:52:16.049Z,31.60
2017-11-26T06:54:46.409Z,25.93
2017-11-26T06:57:17.841Z,29.67
2017-11-26T06:59:46.750Z,29.77
2017-11-26T07:02:16.795Z,34.67
2017-11-26T07:04:45.771Z,27.47
2017-11-26T07:07:14.818Z,31.30
2017-11-26T07:09:43.948Z,35.77
2017-11-26T07:12:14.904Z,30.13
2017-11-26T07:14:44.702Z,38.73
2017-11-26T07:17:13.900Z,43.83
2017-11-26T07:19:43.304Z,39.23
2017-11-26T07:22:13.936Z,37.53
2017-11-26T07:24:44.418Z,33.63
2017-11-26T07:27:14.227Z,33.10
2017-11-26T07:29:44.538Z,37.13
2017-11-26T07:32:14.617Z,32.30
2017-11-26T07:34:43.598Z,32.27
2017-11-26T07:37:12.510Z,29.60
2017-11-26T07:39:42.264Z,47.87
2017-11-26T07:42:11.173Z,34.67
2017-11-26T07:44:40.160Z,31.70
2017-11-26T07:47:09.046Z,30.30
2017-11-26T07:49:37.916Z,36.80
2017-11-26T07:52:06.759Z,25.80
2017-11-26T07:54:35.754Z,29.93
2017-11-26T07:57:04.650Z,30.13
2017-11-26T07:59:33.788Z,35.13
2017-11-26T08:02:03.632Z,32.20
2017-11-26T08:04:32.455Z,32.40
2017-11-26T08:07:01.450Z,32.00
2017-11-26T08:09:34.425Z,34.00
2017-11-26T08:12:03.727Z,34.17
2017-11-26T08:14:32.824Z,34.10
2017-11-26T08:17:02.907Z,41.13
2017-11-26T08:19:31.899Z,36.83
2017-11-26T08:22:00.778Z,35.20
2017-11-26T08:24:29.868Z,32.63
2017-11-26T08:26:58.692Z,36.90
2017-11-26T08:29:32.505Z,42.50
2017-11-26T08:32:07.494Z,32.63
2017-11-26T08:34:41.416Z,35.53
2017-11-26T08:37:11.315Z,28.53
2017-11-26T08:39:40.293Z,37.63
2017-11-26T08:42:09.255Z,32.87
2017-11-26T08:44:38.255Z,33.70
2017-11-26T08:47:07.236Z,33.97
2017-11-26T08:49:39.218Z,35.90
2017-11-26T08:52:08.147Z,39.10
2017-11-26T08:54:37.251Z,33.37
2017-11-26T08:59:40.114Z,41.33
2017-11-26T09:02:09.913Z,30.10
2017-11-26T09:07:15.019Z,35.87
2017-11-26T09:09:44.928Z,29.50
2017-11-26T09:12:14.028Z,32.80
2017-11-26T09:14:45.380Z,36.20
2017-11-26T09:17:14.684Z,31.20
2017-11-26T09:19:43.865Z,29.20
2017-11-26T09:22:13.084Z,31.80
2017-11-26T09:24:42.270Z,34.10
2017-11-26T09:27:11.956Z,30.50
2017-11-26T09:29:41.233Z,31.37
2017-11-26T09:32:10.277Z,28.00
2017-11-26T09:34:39.509Z,30.03
2017-11-26T09:37:11.442Z,32.97
2017-11-26T09:39:40.787Z,33.80
2017-11-26T09:42:10.717Z,37.03
2017-11-26T09:44:39.696Z,41.60
2017-11-26T09:47:11.881Z,35.90
2017-11-26T09:49:43.558Z,40.33
2017-11-26T09:52:13.230Z,36.40
2017-11-26T09:54:43.614Z,40.37
2017-11-26T09:57:14.051Z,40.43
2017-11-26T09:59:43.195Z,36.30
2017-11-26T10:02:12.891Z,32.53
2017-11-26T10:04:43.056Z,39.50
2017-11-26T10:07:12.831Z,38.57
2017-11-26T10:09:42.020Z,36.00
2017-11-26T10:12:12.105Z,33.03
2017-11-26T10:14:41.408Z,31.60
2017-11-26T10:17:12.231Z,36.77
2017-11-26T10:19:41.442Z,32.13
2017-11-26T10:22:11.360Z,36.87
2017-11-26T10:24:42.255Z,37.77
2017-11-26T10:27:13.943Z,35.77
2017-11-26T10:29:44.829Z,39.57
2017-11-26T10:32:15.822Z,33.20
2017-11-26T10:34:44.863Z,35.40
2017-11-26T10:37:14.626Z,35.93
2017-11-26T10:39:46.701Z,31.80
2017-11-26T10:42:15.922Z,36.47
2017-11-26T10:44:45.067Z,35.03
2017-11-26T10:47:14.402Z,37.00
2017-11-26T10:49:44.144Z,34.53
2017-11-26T10:52:14.324Z,32.80
2017-11-26T10:54:45.341Z,32.03
2017-11-26T10:57:15.124Z,31.47
2017-11-26T10:59:45.361Z,37.30
2017-11-26T11:02:17.886Z,29.97
2017-11-26T11:04:47.988Z,33.20
2017-11-26T11:07:17.343Z,30.07
2017-11-26T11:09:47.630Z,28.67
2017-11-26T11:12:17.791Z,33.90
2017-11-26T11:14:47.044Z,26.47
2017-11-26T11:17:17.296Z,30.40
2017-11-26T11:19:46.361Z,32.40
2017-11-26T11:22:16.387Z,32.13
2017-11-26T11:24:45.678Z,28.80
2017-11-26T11:27:17.740Z,34.37
2017-11-26T11:29:47.918Z,35.97
2017-11-26T11:32:18.763Z,31.37
2017-11-26T11:34:47.976Z,30.40
2017-11-26T11:37:17.814Z,29.53
2017-11-26T11:39:47.685Z,30.13
2017-11-26T11:42:16.896Z,32.43
2017-11-26T11:47:19.886Z,31.20
2017-11-26T11:49:49.022Z,34.17
2017-11-26T11:52:19.153Z,33.07
2017-11-26T11:54:48.698Z,28.40
2017-11-26T11:57:18.365Z,29.63
2017-11-26T11:59:51.304Z,30.93
2017-11-26T12:02:20.515Z,32.23
2017-11-26T12:04:50.465Z,34.13
2017-11-26T12:07:19.720Z,34.17
2017-11-26T12:09:49.842Z,39.13
2017-11-26T12:12:19.038Z,34.10
2017-11-26T12:14:48.253Z,41.90
2017-11-26T12:17:17.566Z,41.90
2017-11-26T12:19:48.971Z,47.47
2017-11-26T12:22:19.977Z,44.03
2017-11-26T12:24:49.982Z,30.50
2017-11-26T12:27:20.168Z,36.47
2017-11-26T12:29:50.240Z,26.43
2017-11-26T12:32:22.501Z,35.70
2017-11-26T12:34:52.786Z,37.13
2017-11-26T12:37:22.866Z,36.37
2017-11-26T12:39:54.202Z,36.07
2017-11-26T12:42:23.496Z,32.37
2017-11-26T12:44:53.526Z,35.90
2017-11-26T12:49:58.260Z,36.70
2017-11-26T12:52:47.945Z,40.00
2017-11-26T12:55:19.234Z,34.03
2017-11-26T12:57:49.293Z,41.20
2017-11-26T13:00:18.631Z,34.83
2017-11-26T13:02:48.160Z,41.63
2017-11-26T13:07:53.009Z,45.97
2017-11-26T13:10:22.423Z,37.70
2017-11-26T13:12:53.962Z,38.67
2017-11-26T13:15:24.120Z,43.97
2017-11-26T13:17:53.593Z,40.63
2017-11-26T13:20:25.770Z,47.20
2017-11-26T13:25:30.674Z,39.33
2017-11-26T13:28:00.533Z,36.43
2017-11-26T13:30:29.716Z,32.30
2017-11-26T13:33:00.368Z,30.07
2017-11-26T13:35:31.187Z,31.20
2017-11-26T13:38:02.912Z,35.90
2017-11-26T13:40:33.118Z,38.33
2017-11-26T13:43:03.497Z,38.70
2017-11-26T13:45:32.859Z,40.93
2017-11-26T13:48:03.171Z,40.40
2017-11-26T13:50:34.019Z,38.60
2017-11-26T13:53:03.101Z,37.10
2017-11-26T13:55:33.269Z,41.87
2017-11-26T13:58:03.414Z,34.90
2017-11-26T14:00:33.591Z,41.83
2017-11-26T14:03:04.693Z,42.93
2017-11-26T14:05:34.110Z,42.33
2017-11-26T14:08:03.484Z,41.90
2017-11-26T14:10:33.384Z,35.57
2017-11-26T14:13:05.463Z,35.23
2017-11-26T14:15:37.662Z,40.70
2017-11-26T14:18:07.812Z,37.50
2017-11-26T14:20:36.884Z,41.70
2017-11-26T14:23:07.786Z,40.03
2017-11-26T14:25:38.222Z,40.37
2017-11-26T14:28:09.188Z,40.47
2017-11-26T14:30:39.299Z,42.37
2017-11-26T14:33:08.405Z,44.70
2017-11-26T14:35:40.240Z,47.07
2017-11-26T14:38:09.481Z,48.53
2017-11-26T14:40:38.708Z,45.73
2017-11-26T14:43:08.370Z,49.77
2017-11-26T14:45:37.510Z,48.50
2017-11-26T14:48:06.864Z,43.43
2017-11-26T14:50:38.002Z,51.40
2017-11-26T14:53:08.234Z,63.80
2017-11-26T14:55:40.920Z,54.20
2017-11-26T14:58:11.751Z,62.17
2017-11-26T15:00:43.948Z,62.50
2017-11-26T15:03:14.876Z,65.70
2017-11-26T15:05:46.004Z,72.40
2017-11-26T15:08:16.061Z,67.53
2017-11-26T15:10:54.234Z,66.90
2017-11-26T15:13:25.183Z,59.70
2017-11-26T15:15:54.680Z,55.53
2017-11-26T15:18:24.182Z,63.80
2017-11-26T15:20:53.367Z,57.00
2017-11-26T15:25:57.905Z,46.07
2017-11-26T15:28:27.562Z,45.67
2017-11-26T15:30:57.617Z,44.60
2017-11-26T15:33:26.678Z,45.40
2017-11-26T15:35:56.710Z,42.17
2017-11-26T15:38:28.627Z,44.73
2017-11-26T15:40:58.026Z,45.17
2017-11-26T15:43:27.227Z,46.20
2017-11-26T15:45:59.290Z,47.30
2017-11-26T15:48:29.101Z,43.07
2017-11-26T15:50:59.151Z,38.20
2017-11-26T15:53:29.136Z,38.53
2017-11-26T15:56:00.119Z,41.87
2017-11-26T15:58:30.576Z,42.60
2017-11-26T16:00:59.814Z,44.90
2017-11-26T16:03:29.837Z,42.50
2017-11-26T16:06:04.686Z,38.27
2017-11-26T16:08:33.961Z,36.90
2017-11-26T16:11:03.364Z,44.03
2017-11-26T16:13:33.519Z,42.60
2017-11-26T16:16:03.699Z,38.10
2017-11-26T16:18:38.528Z,49.67
2017-11-26T16:21:08.597Z,44.20
2017-11-26T16:23:38.044Z,44.83
2017-11-26T16:26:07.355Z,55.90
2017-11-26T16:28:36.660Z,60.87
2017-11-26T16:31:06.001Z,48.80
2017-11-26T16:33:35.306Z,49.17
2017-11-26T16:36:05.988Z,47.40
2017-11-26T16:38:36.008Z,47.43
2017-11-26T16:41:05.370Z,49.83
2017-11-26T16:43:35.535Z,52.43
2017-11-26T16:46:05.658Z,51.80
2017-11-26T16:48:34.845Z,69.93
2017-11-26T16:51:04.098Z,55.37
2017-11-26T16:53:33.386Z,61.60
2017-11-26T16:56:03.514Z,73.50
2017-11-26T16:58:32.775Z,50.87
2017-11-26T17:01:02.073Z,55.40
2017-11-26T17:03:33.981Z,53.17
2017-11-26T17:06:03.356Z,51.47
2017-11-26T17:08:32.372Z,53.53
2017-11-26T17:11:01.584Z,52.97
2017-11-26T17:13:30.767Z,65.03
2017-11-26T17:15:59.865Z,56.80
2017-11-26T17:18:29.122Z,75.57
2017-11-26T17:20:58.219Z,60.20
2017-11-26T17:23:28.610Z,54.23
2017-11-26T17:28:32.894Z,56.13
2017-11-26T17:31:02.176Z,53.33
2017-11-26T17:33:31.991Z,64.80
2017-11-26T17:36:01.451Z,55.53
2017-11-26T17:38:30.590Z,55.70
2017-11-26T17:41:00.405Z,55.70
2017-11-26T17:43:29.831Z,57.87
2017-11-26T17:46:02.081Z,61.63
2017-11-26T17:48:31.278Z,69.33
2017-11-26T17:51:01.444Z,57.47
2017-11-26T17:53:31.784Z,65.40
2017-11-26T17:56:01.025Z,66.27
2017-11-26T17:58:30.124Z,63.87
2017-11-26T18:01:00.181Z,59.77
2017-11-26T18:03:30.240Z,68.53
2017-11-26T18:05:59.351Z,60.10
2017-11-26T18:08:28.876Z,54.37
2017-11-26T18:10:58.916Z,55.43
2017-11-26T18:13:29.460Z,55.17
2017-11-26T18:15:58.675Z,61.97
2017-11-26T18:18:28.378Z,54.27
2017-11-26T18:20:58.843Z,57.60
2017-11-26T18:23:28.146Z,57.43
2017-11-26T18:25:57.480Z,51.93
2017-11-26T18:28:27.498Z,52.13
2017-11-26T18:30:57.440Z,55.73
2017-11-26T18:33:26.846Z,59.87
2017-11-26T18:35:56.130Z,76.57
2017-11-26T18:38:26.232Z,60.43
2017-11-26T18:40:55.881Z,64.47
2017-11-26T18:43:26.049Z,58.50
2017-11-26T18:45:55.270Z,54.07
2017-11-26T18:48:24.515Z,71.73
2017-11-26T18:50:56.246Z,56.93
2017-11-26T18:53:25.688Z,48.47
2017-11-26T18:55:55.219Z,62.53
2017-11-26T18:58:27.588Z,59.77
2017-11-26T19:00:58.226Z,51.63
2017-11-26T19:03:28.533Z,65.93
2017-11-26T19:05:58.535Z,58.50
2017-11-26T19:08:28.305Z,55.33
2017-11-26T19:10:57.634Z,57.43
2017-11-26T19:13:27.112Z,57.30
2017-11-26T19:15:56.200Z,52.50
2017-11-26T19:18:27.212Z,49.80
2017-11-26T19:20:57.005Z,58.70
2017-11-26T19:23:26.107Z,65.50
2017-11-26T19:25:55.278Z,61.60
2017-11-26T19:28:24.350Z,54.93
2017-11-26T19:30:54.657Z,51.40
2017-11-26T19:33:25.572Z,53.23
2017-11-26T19:35:55.405Z,52.40
2017-11-26T19:38:24.985Z,61.17
2017-11-26T19:40:54.340Z,56.40
2017-11-26T19:43:23.651Z,61.00
2017-11-26T19:45:53.649Z,63.83
2017-11-26T19:48:23.785Z,55.93
2017-11-26T19:50:54.002Z,62.07
2017-11-26T19:53:23.412Z,64.00
2017-11-26T19:55:52.846Z,64.73
2017-11-26T19:58:22.044Z,76.63
2017-11-26T20:00:52.991Z,63.87
2017-11-26T20:03:22.133Z,67.23
2017-11-26T20:05:51.326Z,63.90
2017-11-26T20:08:21.548Z,77.57
2017-11-26T20:10:51.935Z,61.23
2017-11-26T20:13:21.345Z,63.47
2017-11-26T20:15:51.420Z,69.77
2017-11-26T20:18:23.628Z,64.00
2017-11-26T20:20:52.864Z,64.73
2017-11-26T20:23:21.925Z,65.07
2017-11-26T20:25:52.839Z,69.57
2017-11-26T20:28:22.725Z,69.07
2017-11-26T20:30:52.541Z,60.67
2017-11-26T20:33:26.510Z,66.00
2017-11-26T20:35:56.263Z,57.93
2017-11-26T20:38:26.381Z,61.97
2017-11-26T20:43:30.948Z,53.03
2017-11-26T20:46:00.330Z,49.60
2017-11-26T20:48:29.972Z,51.67
2017-11-26T20:51:00.085Z,55.60
2017-11-26T20:53:29.167Z,47.80
2017-11-26T20:58:35.049Z,49.47
2017-11-26T21:01:04.111Z,44.20
2017-11-26T21:03:34.027Z,47.23
2017-11-26T21:06:03.959Z,47.93
2017-11-26T21:08:33.196Z,56.50
2017-11-26T21:11:02.290Z,56.23
2017-11-26T21:16:05.504Z,57.37
2017-11-26T21:18:34.801Z,54.23
2017-11-26T21:21:05.646Z,55.83
2017-11-26T21:23:35.606Z,50.40
2017-11-26T21:26:06.634Z,52.23
2017-11-26T21:28:35.885Z,55.10
2017-11-26T21:33:43.247Z,49.30
2017-11-26T21:36:12.438Z,58.17
2017-11-26T21:38:41.713Z,50.90
2017-11-26T21:41:12.303Z,53.47
2017-11-26T21:43:41.552Z,58.13
2017-11-26T21:46:11.672Z,53.60
2017-11-26T21:48:42.151Z,60.10
2017-11-26T21:51:11.294Z,53.73
2017-11-26T21:53:40.482Z,53.87
2017-11-26T21:56:10.454Z,53.77
2017-11-26T21:58:39.374Z,49.20
2017-11-26T22:01:08.400Z,52.93
2017-11-26T22:03:38.572Z,54.40
2017-11-26T22:06:07.685Z,53.80
2017-11-26T22:08:37.751Z,52.60
2017-11-26T22:11:07.840Z,53.53
2017-11-26T22:13:36.935Z,61.00
2017-11-26T22:16:07.764Z,58.43
2017-11-26T22:18:36.923Z,53.50
2017-11-26T22:21:07.167Z,58.33
2017-11-26T22:23:36.956Z,60.70
2017-11-26T22:26:06.043Z,60.70
2017-11-26T22:28:37.239Z,62.30
2017-11-26T22:31:07.114Z,53.60
2017-11-26T22:33:36.248Z,54.90
2017-11-26T22:36:05.551Z,56.37
2017-11-26T22:38:34.647Z,57.40
2017-11-26T22:41:03.691Z,50.83
2017-11-26T22:43:33.878Z,61.40
2017-11-26T22:46:03.348Z,61.03
2017-11-26T22:48:34.212Z,56.53
2017-11-26T22:51:04.151Z,57.50
2017-11-26T22:53:33.215Z,55.20
2017-11-26T22:56:04.776Z,60.00
2017-11-26T22:58:34.165Z,67.57
2017-11-26T23:01:03.376Z,58.20
2017-11-26T23:03:33.466Z,52.67
2017-11-26T23:06:02.545Z,64.87
2017-11-26T23:08:31.595Z,61.40
2017-11-26T23:11:01.554Z,104.43
2017-11-26T23:13:31.404Z,172.07
2017-11-26T23:16:01.211Z,164.17
2017-11-26T23:18:30.948Z,98.13
2017-11-26T23:21:01.784Z,95.47
2017-11-26T23:23:31.186Z,77.33
2017-11-26T23:26:00.175Z,80.30
2017-11-26T23:28:31.195Z,97.17
2017-11-26T23:31:00.312Z,75.73
2017-11-26T23:33:29.303Z,79.77
2017-11-26T23:36:00.184Z,75.17
2017-11-26T23:38:29.287Z,81.47
2017-11-26T23:40:58.997Z,73.33
2017-11-26T23:46:02.296Z,68.00
2017-11-26T23:48:31.356Z,73.20
2017-11-26T23:51:03.081Z,63.53
2017-11-26T23:53:32.106Z,56.73
2017-11-26T23:56:01.096Z,55.27
2017-11-26T23:58:32.122Z,59.73
